Terminal Aerodrome Forecast
Issued by NWS

Home | Current Version | Previous Version | Text Only | Print | Product List | Glossary On
Versions: 1 2 3 4 5 6 7 8 9 10 11 12 13 14 15 16 17
000
FTUS43 KICT 232320
TAFSLN
TAF
KSLN 232320Z 2400/2424 07007KT P6SM OVC015
     FM240500 06008KT 4SM -FZDZ OVC008
     FM241500 08005KT 2SM BR VCSH OVC003
     FM241900 30007KT P6SM BKN008
     FM242100 30011KT P6SM BKN015=

USA.gov is the U.S. government's official web portal to all federal, state and local government web resources and services.